createdAt,value
2022-12-08T00:01:32.556Z,28.55
2022-12-08T00:04:02.288Z,26.37
2022-12-08T00:06:53.354Z,25.52
2022-12-08T00:12:16.666Z,23.60
2022-12-08T00:14:47.574Z,25.10
2022-12-08T00:17:16.525Z,20.97
2022-12-08T00:19:45.040Z,20.92
2022-12-08T00:22:14.728Z,20.50
2022-12-08T00:24:45.563Z,18.62
2022-12-08T00:27:15.747Z,20.80
2022-12-08T00:29:45.266Z,17.85
2022-12-08T00:32:13.767Z,18.05
2022-12-08T00:34:41.375Z,18.23
2022-12-08T00:37:08.953Z,21.70
2022-12-08T00:39:36.926Z,18.27
2022-12-08T00:42:13.510Z,19.02
2022-12-08T00:44:43.018Z,15.57
2022-12-08T00:47:11.473Z,16.20
2022-12-08T00:49:39.132Z,21.02
2022-12-08T00:52:07.177Z,18.10
2022-12-08T00:54:34.948Z,16.37
2022-12-08T00:57:02.799Z,18.77
2022-12-08T00:59:30.655Z,17.20
2022-12-08T01:01:58.347Z,18.75
2022-12-08T01:04:26.231Z,19.73
2022-12-08T01:06:54.011Z,22.05
2022-12-08T01:09:21.713Z,27.15
2022-12-08T01:11:49.272Z,23.77
2022-12-08T01:14:17.060Z,23.98
2022-12-08T01:16:45.024Z,21.55
2022-12-08T01:19:14.464Z,22.45
2022-12-08T01:21:43.375Z,19.83
2022-12-08T01:24:16.420Z,19.62
2022-12-08T01:26:45.290Z,17.17
2022-12-08T01:29:13.291Z,18.37
2022-12-08T01:31:40.968Z,20.75
2022-12-08T01:34:08.829Z,19.62
2022-12-08T01:36:37.303Z,17.90
2022-12-08T01:39:08.034Z,19.98
2022-12-08T01:41:38.010Z,17.90
2022-12-08T01:44:08.492Z,21.00
2022-12-08T01:46:38.644Z,19.20
2022-12-08T01:49:21.031Z,20.27
2022-12-08T01:52:18.424Z,22.52
2022-12-08T01:54:53.713Z,19.20
2022-12-08T01:57:30.869Z,21.25
2022-12-08T02:00:14.287Z,18.90
2022-12-08T02:02:47.310Z,19.52
2022-12-08T02:05:16.319Z,21.55
2022-12-08T02:07:44.879Z,21.12
2022-12-08T02:10:16.622Z,18.02
2022-12-08T02:12:44.917Z,17.70
2022-12-08T02:15:12.956Z,22.98
2022-12-08T02:18:00.075Z,19.27
2022-12-08T02:20:38.023Z,20.45
2022-12-08T02:23:05.569Z,17.40
2022-12-08T02:25:47.577Z,18.02
2022-12-08T02:28:47.401Z,15.32
2022-12-08T02:31:35.395Z,17.87
2022-12-08T02:34:09.130Z,16.70
2022-12-08T02:37:01.324Z,17.70
2022-12-08T02:39:35.975Z,19.42
2022-12-08T02:42:35.291Z,17.70
2022-12-08T02:45:11.661Z,20.15
2022-12-08T02:47:40.819Z,17.85
2022-12-08T02:50:09.856Z,17.08
2022-12-08T02:52:43.382Z,17.98
2022-12-08T02:55:19.100Z,17.30
2022-12-08T02:58:20.245Z,17.35
2022-12-08T03:01:06.272Z,24.27
2022-12-08T03:03:45.862Z,29.20
2022-12-08T03:06:44.101Z,23.77
2022-12-08T03:09:29.709Z,27.95
2022-12-08T03:12:18.436Z,28.00
2022-12-08T03:14:50.233Z,25.30
2022-12-08T03:17:21.770Z,23.87
2022-12-08T03:19:50.107Z,25.20
2022-12-08T03:22:22.700Z,21.15
2022-12-08T03:24:51.344Z,23.08
2022-12-08T03:27:29.569Z,22.60
2022-12-08T03:29:59.145Z,21.62
2022-12-08T03:32:40.190Z,22.75
2022-12-08T03:35:15.921Z,26.05
2022-12-08T03:37:44.330Z,23.00
2022-12-08T03:40:15.585Z,23.08
2022-12-08T03:42:43.214Z,23.98
2022-12-08T03:45:11.752Z,25.60
2022-12-08T03:47:39.350Z,24.00
2022-12-08T03:50:07.592Z,24.75
2022-12-08T03:52:35.795Z,25.40
2022-12-08T03:55:03.660Z,24.52
2022-12-08T03:57:31.280Z,25.60
2022-12-08T03:59:59.198Z,24.08
2022-12-08T04:02:26.759Z,25.52
2022-12-08T04:04:54.602Z,27.13
2022-12-08T04:07:22.176Z,25.98
2022-12-08T04:09:49.803Z,28.87
2022-12-08T04:12:17.705Z,24.75
2022-12-08T04:14:45.249Z,28.45
2022-12-08T04:17:12.892Z,28.50
2022-12-08T04:19:41.044Z,29.73
2022-12-08T04:22:08.875Z,32.08
2022-12-08T04:24:36.375Z,36.22
2022-12-08T04:27:04.257Z,30.02
2022-12-08T04:29:31.766Z,29.63
2022-12-08T04:31:59.375Z,31.40
2022-12-08T04:34:27.250Z,27.80
2022-12-08T04:36:54.781Z,28.85
2022-12-08T04:39:22.417Z,26.55
2022-12-08T04:41:50.372Z,29.08
2022-12-08T04:44:17.894Z,28.90
2022-12-08T04:46:45.441Z,30.88
2022-12-08T04:49:13.315Z,32.80
2022-12-08T04:51:40.977Z,31.70
2022-12-08T04:54:08.593Z,34.15
2022-12-08T04:56:36.753Z,29.85
2022-12-08T04:59:04.466Z,33.30
2022-12-08T05:01:32.244Z,30.37
2022-12-08T05:04:00.252Z,32.58
2022-12-08T05:06:27.793Z,30.10
2022-12-08T05:08:56.279Z,29.50
2022-12-08T05:11:24.132Z,27.90
2022-12-08T05:13:51.826Z,30.95
2022-12-08T05:16:19.357Z,30.90
2022-12-08T05:18:47.364Z,32.67
2022-12-08T05:21:14.891Z,30.88
2022-12-08T05:23:42.359Z,24.95
2022-12-08T05:26:10.205Z,30.08
2022-12-08T05:28:42.270Z,27.73
2022-12-08T05:31:15.908Z,27.92
2022-12-08T05:33:44.557Z,29.30
2022-12-08T05:36:14.524Z,27.95
2022-12-08T05:38:42.967Z,27.40
2022-12-08T05:41:14.597Z,24.87
2022-12-08T05:43:42.665Z,27.08
2022-12-08T05:46:11.166Z,28.00
2022-12-08T05:48:39.375Z,28.55
2022-12-08T05:51:17.106Z,25.00
2022-12-08T05:53:44.725Z,33.92
2022-12-08T05:56:12.587Z,31.67
2022-12-08T05:58:40.337Z,32.10
2022-12-08T06:01:08.192Z,28.98
2022-12-08T06:03:36.269Z,33.22
2022-12-08T06:06:04.323Z,29.33
2022-12-08T06:08:31.914Z,32.17
2022-12-08T06:10:59.912Z,33.88
2022-12-08T06:13:27.410Z,35.80
2022-12-08T06:15:55.036Z,40.42
2022-12-08T06:18:22.902Z,39.90
2022-12-08T06:20:50.520Z,38.08
2022-12-08T06:23:18.078Z,37.25
2022-12-08T06:25:45.914Z,39.13
2022-12-08T06:28:13.485Z,33.63
2022-12-08T06:30:41.010Z,30.10
2022-12-08T06:33:08.881Z,28.98
2022-12-08T06:35:37.144Z,28.05
2022-12-08T06:38:04.760Z,28.52
2022-12-08T06:40:32.657Z,26.73
2022-12-08T06:43:00.210Z,32.72
2022-12-08T06:45:27.777Z,32.53
2022-12-08T06:47:55.649Z,33.85
2022-12-08T06:50:23.211Z,37.13
2022-12-08T06:53:02.821Z,38.85
2022-12-08T06:58:21.146Z,48.90
2022-12-08T07:00:49.427Z,43.42
2022-12-08T07:03:17.058Z,47.88
2022-12-08T07:05:44.841Z,36.85
2022-12-08T07:08:12.877Z,33.08
2022-12-08T07:10:40.650Z,30.25
2022-12-08T07:13:08.307Z,32.75
2022-12-08T07:15:36.154Z,33.97
2022-12-08T07:18:03.991Z,34.05
2022-12-08T07:20:32.092Z,68.45
2022-12-08T07:23:00.118Z,66.82
2022-12-08T07:25:27.738Z,59.45
2022-12-08T07:27:55.399Z,74.35
2022-12-08T07:30:23.464Z,44.55
2022-12-08T07:32:50.986Z,43.03
2022-12-08T07:35:18.565Z,48.17
2022-12-08T07:37:46.675Z,46.33
2022-12-08T07:40:15.071Z,45.95
2022-12-08T07:42:42.872Z,47.97
2022-12-08T07:45:10.820Z,42.72
2022-12-08T07:47:38.421Z,35.83
2022-12-08T07:50:07.109Z,42.62
2022-12-08T07:52:35.822Z,40.08
2022-12-08T07:55:03.602Z,45.08
2022-12-08T07:57:31.208Z,42.50
2022-12-08T07:59:59.143Z,42.40
2022-12-08T08:02:26.924Z,42.67
2022-12-08T08:04:54.908Z,36.30
2022-12-08T08:07:22.452Z,34.67
2022-12-08T08:09:50.097Z,32.05
2022-12-08T08:12:33.637Z,30.15
2022-12-08T08:15:01.841Z,30.20
2022-12-08T08:17:30.411Z,34.85
2022-12-08T08:19:58.156Z,30.60
2022-12-08T08:22:26.351Z,25.62
2022-12-08T08:24:54.638Z,28.70
2022-12-08T08:27:22.834Z,30.92
2022-12-08T08:29:50.728Z,31.60
2022-12-08T08:32:19.590Z,41.90
2022-12-08T08:34:47.195Z,51.17
2022-12-08T08:37:14.967Z,59.55
2022-12-08T08:39:43.178Z,48.60
2022-12-08T08:42:10.787Z,46.95
2022-12-08T08:44:39.066Z,39.45
2022-12-08T08:47:07.291Z,37.08
2022-12-08T08:49:35.270Z,37.95
2022-12-08T08:52:04.934Z,38.25
2022-12-08T08:54:33.505Z,33.45
2022-12-08T08:57:02.134Z,33.78
2022-12-08T08:59:29.922Z,29.63
2022-12-08T09:01:57.874Z,31.83
2022-12-08T09:04:26.047Z,37.88
2022-12-08T09:06:53.830Z,33.65
2022-12-08T09:09:21.837Z,29.50
2022-12-08T09:11:49.447Z,31.77
2022-12-08T09:14:17.148Z,27.00
2022-12-08T09:16:45.093Z,30.40
2022-12-08T09:19:12.860Z,29.35
2022-12-08T09:21:40.797Z,29.00
2022-12-08T09:24:15.554Z,29.05
2022-12-08T09:26:44.436Z,31.12
2022-12-08T09:29:14.653Z,32.42
2022-12-08T09:31:42.599Z,33.80
2022-12-08T09:34:12.326Z,31.02
2022-12-08T09:36:40.633Z,31.80
2022-12-08T09:39:08.814Z,34.83
2022-12-08T09:41:48.184Z,31.80
2022-12-08T09:44:34.720Z,34.88
2022-12-08T09:47:05.485Z,29.02
2022-12-08T09:49:58.151Z,27.90
2022-12-08T09:52:31.463Z,30.17
2022-12-08T09:55:04.522Z,27.73
2022-12-08T09:57:32.152Z,28.55
2022-12-08T10:00:04.493Z,29.15
2022-12-08T10:02:32.932Z,25.65
2022-12-08T10:05:01.039Z,31.23
2022-12-08T10:08:08.391Z,29.40
2022-12-08T10:10:57.974Z,28.90
2022-12-08T10:13:36.762Z,29.37
2022-12-08T10:16:39.489Z,28.83
2022-12-08T10:19:21.401Z,39.90
2022-12-08T10:21:50.643Z,29.95
2022-12-08T10:24:41.219Z,36.30
2022-12-08T10:27:12.595Z,29.92
2022-12-08T10:29:41.210Z,36.72
2022-12-08T10:32:17.575Z,39.05
2022-12-08T10:35:08.886Z,41.78
2022-12-08T10:37:37.008Z,29.25
2022-12-08T10:40:10.591Z,32.90
2022-12-08T10:42:41.959Z,35.60
2022-12-08T10:45:17.694Z,37.22
2022-12-08T10:48:06.556Z,26.37
2022-12-08T10:50:35.685Z,31.45
2022-12-08T10:53:09.501Z,38.17
2022-12-08T10:56:09.406Z,32.97
2022-12-08T10:58:42.680Z,31.30
2022-12-08T11:01:18.378Z,29.65
2022-12-08T11:03:46.368Z,32.08
2022-12-08T11:06:20.271Z,28.62
2022-12-08T11:09:23.142Z,33.00
2022-12-08T11:12:06.688Z,26.10
2022-12-08T11:14:43.573Z,25.83
2022-12-08T11:17:33.367Z,25.20
2022-12-08T11:20:10.454Z,26.52
2022-12-08T11:22:43.477Z,24.35
2022-12-08T11:25:24.838Z,24.92
2022-12-08T11:27:56.433Z,25.37
2022-12-08T11:30:38.958Z,24.52
2022-12-08T11:33:22.409Z,25.67
2022-12-08T11:35:55.629Z,24.48
2022-12-08T11:38:25.184Z,33.35
2022-12-08T11:41:08.385Z,22.92
2022-12-08T11:43:46.798Z,26.27
2022-12-08T11:46:26.393Z,23.67
2022-12-08T11:49:06.710Z,24.27
2022-12-08T11:51:39.774Z,28.70
2022-12-08T11:54:26.244Z,31.62
2022-12-08T11:57:03.103Z,25.83
2022-12-08T11:59:41.901Z,18.87
2022-12-08T12:02:19.727Z,21.85
2022-12-08T12:04:50.799Z,21.37
2022-12-08T12:07:39.450Z,25.05
2022-12-08T12:10:21.082Z,19.65
2022-12-08T12:13:07.181Z,26.10
2022-12-08T12:15:47.191Z,21.80
2022-12-08T12:18:27.241Z,23.12
2022-12-08T12:21:10.471Z,21.77
2022-12-08T12:23:54.462Z,19.58
2022-12-08T12:26:25.937Z,19.60
2022-12-08T12:29:00.282Z,21.40
2022-12-08T12:31:41.639Z,19.95
2022-12-08T12:34:21.138Z,20.70
2022-12-08T12:37:10.276Z,19.02
2022-12-08T12:39:53.379Z,23.15
2022-12-08T12:42:36.665Z,19.85
2022-12-08T12:45:22.098Z,18.75
2022-12-08T12:47:56.337Z,18.60
2022-12-08T12:50:33.896Z,20.10
2022-12-08T12:53:20.796Z,19.50
2022-12-08T12:55:55.542Z,27.00
2022-12-08T12:58:32.326Z,22.02
2022-12-08T13:01:15.088Z,21.65
2022-12-08T13:03:51.757Z,19.37
2022-12-08T13:06:32.425Z,19.98
2022-12-08T13:09:00.614Z,19.83
2022-12-08T13:11:28.353Z,18.30
2022-12-08T13:13:56.934Z,20.83
2022-12-08T13:16:27.815Z,24.42
2022-12-08T13:19:03.551Z,19.33
2022-12-08T13:21:36.970Z,21.08
2022-12-08T13:24:10.659Z,20.42
2022-12-08T13:27:02.131Z,23.42
2022-12-08T13:29:30.685Z,18.10
2022-12-08T13:32:01.463Z,25.37
2022-12-08T13:34:38.061Z,24.02
2022-12-08T13:37:18.833Z,19.17
2022-12-08T13:39:58.434Z,18.02
2022-12-08T13:42:44.969Z,20.50
2022-12-08T13:45:33.560Z,22.35
2022-12-08T13:48:23.384Z,21.23
2022-12-08T13:57:26.816Z,20.90
2022-12-08T13:59:59.779Z,18.42
2022-12-08T14:02:35.176Z,21.87
2022-12-08T14:05:23.475Z,22.70
2022-12-08T14:07:55.423Z,22.17
2022-12-08T14:10:29.221Z,22.80
2022-12-08T14:13:03.553Z,24.58
2022-12-08T14:15:38.094Z,24.10
2022-12-08T14:18:21.612Z,25.50
2022-12-08T14:21:21.087Z,20.73
2022-12-08T14:23:48.951Z,18.05
2022-12-08T14:26:18.005Z,17.50
2022-12-08T14:28:45.612Z,20.45
2022-12-08T14:31:14.573Z,22.05
2022-12-08T14:33:43.065Z,25.05
2022-12-08T14:36:20.983Z,20.35
2022-12-08T14:38:52.635Z,21.75
2022-12-08T14:44:01.404Z,21.02
2022-12-08T14:46:29.325Z,19.92
2022-12-08T14:48:58.318Z,18.12
2022-12-08T14:51:31.081Z,21.40
2022-12-08T14:54:02.743Z,17.83
2022-12-08T14:59:06.805Z,19.75
2022-12-08T15:01:35.010Z,20.67
2022-12-08T15:04:18.227Z,23.50
2022-12-08T15:07:05.781Z,22.15
2022-12-08T15:09:43.253Z,32.85
2022-12-08T15:12:14.074Z,24.23
2022-12-08T15:15:14.568Z,30.03
2022-12-08T15:17:44.237Z,27.10
2022-12-08T15:20:35.616Z,27.20
2022-12-08T15:23:04.635Z,30.62
2022-12-08T15:25:32.472Z,23.95
2022-12-08T15:28:02.625Z,22.45
2022-12-08T15:30:31.260Z,21.80
2022-12-08T15:32:59.012Z,23.23
2022-12-08T15:35:26.543Z,22.23
2022-12-08T15:37:54.483Z,22.10
2022-12-08T15:40:27.234Z,22.37
2022-12-08T15:42:55.179Z,20.27
2022-12-08T15:45:31.429Z,19.92
2022-12-08T15:47:59.321Z,22.13
2022-12-08T15:50:27.328Z,21.05
2022-12-08T15:52:54.937Z,22.17
2022-12-08T15:55:28.274Z,20.58
2022-12-08T16:00:53.862Z,20.48
2022-12-08T16:04:13.082Z,22.85
2022-12-08T16:07:12.511Z,21.65
2022-12-08T16:09:31.894Z,24.42
2022-12-08T16:12:21.106Z,24.75
2022-12-08T16:17:37.002Z,32.25
2022-12-08T16:20:15.398Z,26.37
2022-12-08T16:23:13.471Z,26.70
2022-12-08T16:25:52.830Z,26.60
2022-12-08T16:28:52.301Z,25.10
2022-12-08T16:31:13.006Z,27.77
2022-12-08T16:33:42.055Z,25.75
2022-12-08T16:36:10.626Z,26.48
2022-12-08T16:38:38.333Z,28.20
2022-12-08T16:41:31.349Z,28.85
2022-12-08T16:44:03.046Z,24.48
2022-12-08T16:46:31.455Z,33.08
2022-12-08T16:48:59.397Z,27.80
2022-12-08T16:51:27.727Z,29.67
2022-12-08T16:53:57.102Z,27.98
2022-12-08T16:56:30.597Z,24.65
2022-12-08T16:59:02.060Z,27.60
2022-12-08T17:01:31.585Z,26.50
2022-12-08T17:04:31.026Z,25.80
2022-12-08T17:06:47.525Z,28.62
2022-12-08T17:09:15.273Z,28.55
2022-12-08T17:11:43.837Z,27.90
2022-12-08T17:14:13.030Z,33.63
2022-12-08T17:16:41.712Z,28.00
2022-12-08T17:19:13.264Z,28.33
2022-12-08T17:21:41.903Z,30.67
2022-12-08T17:24:09.494Z,40.55
2022-12-08T17:26:39.980Z,57.88
2022-12-08T17:29:07.819Z,40.20
2022-12-08T17:31:35.460Z,28.42
2022-12-08T17:34:05.815Z,33.38
2022-12-08T17:36:33.910Z,34.80
2022-12-08T17:39:02.402Z,38.17
2022-12-08T17:41:30.380Z,36.20
2022-12-08T17:43:58.250Z,32.00
2022-12-08T17:46:26.163Z,31.92
2022-12-08T17:48:54.148Z,32.22
2022-12-08T17:51:22.194Z,30.35
2022-12-08T17:53:49.986Z,30.00
2022-12-08T17:56:21.623Z,33.40
2022-12-08T17:58:54.403Z,30.70
2022-12-08T18:01:24.070Z,31.42
2022-12-08T18:03:52.205Z,31.87
2022-12-08T18:06:20.578Z,30.60
2022-12-08T18:08:48.440Z,32.05
2022-12-08T18:11:19.174Z,34.08
2022-12-08T18:13:48.380Z,28.80
2022-12-08T18:16:19.213Z,28.62
2022-12-08T18:18:47.700Z,32.10
2022-12-08T18:21:23.018Z,30.92
2022-12-08T18:23:51.856Z,28.70
2022-12-08T18:26:20.715Z,36.17
2022-12-08T18:28:48.476Z,29.33
2022-12-08T18:31:19.610Z,30.48
2022-12-08T18:33:48.456Z,30.50
2022-12-08T18:36:20.234Z,36.83
2022-12-08T18:38:48.176Z,28.77
2022-12-08T18:41:20.042Z,28.75
2022-12-08T18:43:48.077Z,26.87
2022-12-08T18:46:17.371Z,27.55
2022-12-08T18:48:48.931Z,24.55
2022-12-08T18:53:47.612Z,24.30
2022-12-08T18:56:35.224Z,22.15
2022-12-08T18:59:06.583Z,23.92
2022-12-08T19:01:36.323Z,23.12
2022-12-08T19:06:56.408Z,23.57
2022-12-08T19:09:26.973Z,26.35
2022-12-08T19:11:55.497Z,23.23
2022-12-08T19:14:28.147Z,24.63
2022-12-08T19:16:57.824Z,24.08
2022-12-08T19:19:27.475Z,24.37
2022-12-08T19:21:56.002Z,22.45
2022-12-08T19:24:25.015Z,21.50
2022-12-08T19:26:53.336Z,23.58
2022-12-08T19:29:21.262Z,28.05
2022-12-08T19:31:49.628Z,27.45
2022-12-08T19:34:17.897Z,32.45
2022-12-08T19:36:45.948Z,25.48
2022-12-08T19:39:37.994Z,24.40
2022-12-08T19:42:32.348Z,26.12
2022-12-08T19:45:14.613Z,24.20
2022-12-08T19:47:43.004Z,23.80
2022-12-08T19:50:32.545Z,26.83
2022-12-08T19:53:01.135Z,23.02
2022-12-08T19:55:29.496Z,25.08
2022-12-08T19:57:57.361Z,30.27
2022-12-08T20:00:25.692Z,34.70
2022-12-08T20:02:54.576Z,30.33
2022-12-08T20:05:22.531Z,34.72
2022-12-08T20:07:50.852Z,27.25
2022-12-08T20:10:22.151Z,26.67
2022-12-08T20:12:50.031Z,27.75
2022-12-08T20:15:17.831Z,24.67
2022-12-08T20:17:46.539Z,30.17
2022-12-08T20:20:15.070Z,28.40
2022-12-08T20:22:42.988Z,28.77
2022-12-08T20:25:13.059Z,26.98
2022-12-08T20:27:41.627Z,25.92
2022-12-08T20:30:16.449Z,27.92
2022-12-08T20:32:45.701Z,28.95
2022-12-08T20:35:14.959Z,30.00
2022-12-08T20:37:43.078Z,30.83
2022-12-08T20:40:11.618Z,23.65
2022-12-08T20:42:39.437Z,26.70
2022-12-08T20:45:09.196Z,25.37
2022-12-08T20:47:37.820Z,24.58
2022-12-08T20:50:07.131Z,24.58
2022-12-08T20:52:35.177Z,27.48
2022-12-08T20:55:04.504Z,24.40
2022-12-08T20:57:33.503Z,24.63
2022-12-08T21:00:02.527Z,23.73
2022-12-08T21:02:30.743Z,24.40
2022-12-08T21:04:58.431Z,23.42
2022-12-08T21:07:26.067Z,22.85
2022-12-08T21:09:54.777Z,21.85
2022-12-08T21:12:22.486Z,24.23
2022-12-08T21:14:50.253Z,24.58
2022-12-08T21:17:18.289Z,29.25
2022-12-08T21:19:46.187Z,25.25
2022-12-08T21:22:14.644Z,29.25
2022-12-08T21:24:42.654Z,29.75
2022-12-08T21:27:10.460Z,27.08
2022-12-08T21:29:39.004Z,27.73
2022-12-08T21:32:07.102Z,32.47
2022-12-08T21:34:35.521Z,28.92
2022-12-08T21:37:03.140Z,27.00
2022-12-08T21:39:31.132Z,26.52
2022-12-08T21:42:27.938Z,28.30
2022-12-08T21:45:00.293Z,24.98
2022-12-08T21:47:28.074Z,26.75
2022-12-08T21:49:55.808Z,25.00
2022-12-08T21:52:23.636Z,25.52
2022-12-08T21:54:51.464Z,27.05
2022-12-08T21:57:19.315Z,26.20
2022-12-08T21:59:47.483Z,25.37
2022-12-08T22:02:20.780Z,24.75
2022-12-08T22:04:50.667Z,26.27
2022-12-08T22:07:19.638Z,23.58
2022-12-08T22:09:47.515Z,26.65
2022-12-08T22:12:16.831Z,29.65
2022-12-08T22:14:44.530Z,28.12
2022-12-08T22:17:12.376Z,30.73
2022-12-08T22:19:40.540Z,28.60
2022-12-08T22:22:08.326Z,29.10
2022-12-08T22:24:35.945Z,24.10
2022-12-08T22:27:04.053Z,32.28
2022-12-08T22:29:31.949Z,25.30
2022-12-08T22:31:59.501Z,29.63
2022-12-08T22:34:27.560Z,37.88
2022-12-08T22:36:55.301Z,33.47
2022-12-08T22:39:22.928Z,41.88
2022-12-08T22:41:50.991Z,37.63
2022-12-08T22:44:23.711Z,31.75
2022-12-08T22:46:51.789Z,40.63
2022-12-08T22:49:19.475Z,30.73
2022-12-08T22:51:46.959Z,29.75
2022-12-08T22:54:14.757Z,28.52
2022-12-08T22:56:42.343Z,26.73
2022-12-08T22:59:10.233Z,29.90
2022-12-08T23:01:38.055Z,28.83
2022-12-08T23:04:06.012Z,27.33
2022-12-08T23:06:33.890Z,34.15
2022-12-08T23:09:02.630Z,26.62
2022-12-08T23:11:31.286Z,35.25
2022-12-08T23:14:00.354Z,33.97
2022-12-08T23:16:29.142Z,31.70
2022-12-08T23:18:57.012Z,26.92
2022-12-08T23:21:24.545Z,28.70
2022-12-08T23:23:52.490Z,31.92
2022-12-08T23:26:25.210Z,25.75
2022-12-08T23:28:54.058Z,28.10
2022-12-08T23:31:22.468Z,27.52
2022-12-08T23:33:50.814Z,37.58
2022-12-08T23:36:20.447Z,32.72
2022-12-08T23:38:48.970Z,30.50
2022-12-08T23:41:17.238Z,35.30
2022-12-08T23:43:47.002Z,33.08
2022-12-08T23:46:16.958Z,34.63
2022-12-08T23:48:46.012Z,47.97
2022-12-08T23:51:14.053Z,38.20
2022-12-08T23:53:42.074Z,35.40
2022-12-08T23:56:12.701Z,33.30
2022-12-08T23:58:41.757Z,33.63
